KHLG

Wheeling Ohio Co Airport

Wheeling, West Virginia, USA
KHLG 230525Z 2306/2406 10011KT P6SM SCT250 FM231500 13012G18KT P6SM SCT250 FM240400 11011KT P6SM VCSH OVC035
Issued Valid From Valid To
Apr-23 @ 05:25 UTC
(4 hours ago)
Apr-23 @ 06:00 UTC
(4 hours ago)
Apr-24 @ 06:00 UTC
(in 20 hours)
Apr-23 @ 06:00 to Apr-23 @ 15:00
KHLG 230525Z 2306/2406 10011KT P6SM SCT250
Wind Visibility Clouds
100° at 11 knots Greater than 6 miles
  • Scattered at 25,000' AGL
From Apr-23 @ 15:00 to Apr-24 @ 04:00
FM231500 13012G18KT P6SM SCT250
Wind Visibility Clouds
130° at 12 knots
 Gusting to 18 knots
Greater than 6 miles
  • Scattered at 25,000' AGL
From Apr-24 @ 04:00 to Apr-24 @ 06:00
FM240400 11011KT P6SM VCSH OVC035
Wind Visibility Clouds
110° at 11 knots Greater than 6 miles
  • Overcast at 3,500' AGL
KHLG 230525Z 2306/2406 10011KT P6SM SCT250 FM231500 13012G18KT P6SM SCT250 FM240400 11011KT P6SM VCSH OVC035
Issued Apr-23 @ 05:25 UTC
(4 hours ago)
Valid From Apr-23 @ 06:00 UTC
(4 hours ago)
Valid To Apr-24 @ 06:00 UTC
(in 20 hours)
Apr-23 @ 06:00 - Apr-23 @ 15:00
Wind Visibility
100° at 11 knots Greater than 6 miles
Clouds
  • Scattered at 25,000' AGL
From Apr-23 @ 15:00 - Apr-24 @ 04:00
Wind Visibility
130° at 12 knots
 Gusting to 18 knots
Greater than 6 miles
Clouds
  • Scattered at 25,000' AGL
From Apr-24 @ 04:00 - Apr-24 @ 06:00
Wind Visibility
110° at 11 knots Greater than 6 miles
Clouds
  • Overcast at 3,500' AGL